createdAt,value
2023-01-07T00:02:27.645Z,61.89
2023-01-07T00:07:29.247Z,62.30
2023-01-07T00:12:31.016Z,62.39
2023-01-07T00:17:32.651Z,62.38
2023-01-07T00:22:34.232Z,62.29
2023-01-07T00:27:35.845Z,62.17
2023-01-07T00:32:59.873Z,61.87
2023-01-07T00:38:01.445Z,61.74
2023-01-07T00:43:05.242Z,61.97
2023-01-07T00:48:06.835Z,61.80
2023-01-07T00:53:10.407Z,62.05
2023-01-07T00:58:16.683Z,62.47
2023-01-07T01:03:18.300Z,62.79
2023-01-07T01:08:21.303Z,63.11
2023-01-07T01:13:22.926Z,63.08
2023-01-07T01:18:24.648Z,62.77
2023-01-07T01:23:26.320Z,62.79
2023-01-07T01:28:27.892Z,62.87
2023-01-07T01:33:29.503Z,62.80
2023-01-07T01:38:31.102Z,62.54
2023-01-07T01:43:35.746Z,62.65
2023-01-07T01:48:49.310Z,62.93
2023-01-07T01:53:52.742Z,62.86
2023-01-07T01:59:00.921Z,62.59
2023-01-07T02:04:13.789Z,62.61
2023-01-07T02:09:15.439Z,62.86
2023-01-07T02:14:19.682Z,62.62
2023-01-07T02:19:57.199Z,62.72
2023-01-07T02:25:04.707Z,62.90
2023-01-07T02:30:38.589Z,62.73
2023-01-07T02:35:49.252Z,62.53
2023-01-07T02:41:10.716Z,62.81
2023-01-07T02:46:30.591Z,62.58
2023-01-07T02:51:34.649Z,62.40
2023-01-07T02:56:49.934Z,62.32
2023-01-07T03:01:56.848Z,62.11
2023-01-07T03:07:36.024Z,62.06
2023-01-07T03:12:52.034Z,61.99
2023-01-07T03:18:26.547Z,61.81
2023-01-07T03:23:30.101Z,61.91
2023-01-07T03:28:40.585Z,62.02
2023-01-07T03:34:07.487Z,62.41
2023-01-07T03:39:13.408Z,62.49
2023-01-07T03:44:15.008Z,62.50
2023-01-07T03:49:16.658Z,62.50
2023-01-07T03:54:18.265Z,62.78
2023-01-07T03:59:19.918Z,62.82
2023-01-07T04:04:21.674Z,63.31
2023-01-07T04:09:23.329Z,63.94
2023-01-07T04:14:24.956Z,63.75
2023-01-07T04:19:26.548Z,63.85
2023-01-07T04:24:28.152Z,63.86
2023-01-07T04:29:30.618Z,63.66
2023-01-07T04:34:32.258Z,63.63
2023-01-07T04:39:33.913Z,63.62
2023-01-07T04:44:35.508Z,63.77
2023-01-07T04:49:37.075Z,63.59
2023-01-07T04:54:38.672Z,63.66
2023-01-07T04:59:40.259Z,63.79
2023-01-07T05:04:41.923Z,63.48
2023-01-07T05:09:43.528Z,63.64
2023-01-07T05:14:45.125Z,63.80
2023-01-07T05:19:46.741Z,64.37
2023-01-07T05:24:48.388Z,63.81
2023-01-07T05:29:49.955Z,64.05
2023-01-07T05:34:51.530Z,63.86
2023-01-07T05:39:53.104Z,63.79
2023-01-07T05:44:54.703Z,63.81
2023-01-07T05:49:56.304Z,63.61
2023-01-07T05:54:57.884Z,63.80
2023-01-07T05:59:59.940Z,63.46
2023-01-07T06:05:01.636Z,63.27
2023-01-07T06:10:03.984Z,63.63
2023-01-07T06:15:07.322Z,63.49
2023-01-07T06:20:09.630Z,63.46
2023-01-07T06:25:12.283Z,63.45
2023-01-07T06:30:14.028Z,63.54
2023-01-07T06:35:15.674Z,63.54
2023-01-07T06:40:17.459Z,63.68
2023-01-07T06:45:19.151Z,64.06
2023-01-07T06:50:20.811Z,64.03
2023-01-07T06:55:22.944Z,63.96
2023-01-07T07:00:24.607Z,63.83
2023-01-07T07:05:27.347Z,63.79
2023-01-07T07:10:28.957Z,63.58
2023-01-07T07:15:30.772Z,63.42
2023-01-07T07:20:32.571Z,63.33
2023-01-07T07:25:34.280Z,63.58
2023-01-07T07:30:45.624Z,63.22
2023-01-07T07:35:49.470Z,62.56
2023-01-07T07:40:51.068Z,62.27
2023-01-07T07:45:52.658Z,62.02
2023-01-07T07:50:54.364Z,61.76
2023-01-07T07:55:56.031Z,61.62
2023-01-07T08:00:57.700Z,61.30
2023-01-07T08:05:59.680Z,61.30
2023-01-07T08:11:03.139Z,61.15
2023-01-07T08:16:05.245Z,61.15
2023-01-07T08:21:06.893Z,61.07
2023-01-07T08:26:08.506Z,60.89
2023-01-07T08:31:10.342Z,60.65
2023-01-07T08:36:22.711Z,60.41
2023-01-07T08:41:25.413Z,60.54
2023-01-07T08:46:27.135Z,60.04
2023-01-07T08:51:28.750Z,59.92
2023-01-07T08:56:30.401Z,59.98
2023-01-07T09:01:32.221Z,59.43
2023-01-07T09:06:34.014Z,59.52
2023-01-07T09:11:35.616Z,59.05
2023-01-07T09:16:37.244Z,58.67
2023-01-07T09:21:38.946Z,59.18
2023-01-07T09:26:40.522Z,58.57
2023-01-07T09:31:42.140Z,58.36
2023-01-07T09:36:43.769Z,58.18
2023-01-07T09:41:51.025Z,57.82
2023-01-07T09:46:55.088Z,57.62
2023-01-07T09:52:05.606Z,57.09
2023-01-07T09:57:13.652Z,57.01
2023-01-07T10:02:15.219Z,57.03
2023-01-07T10:07:29.132Z,57.29
2023-01-07T10:13:04.604Z,57.43
2023-01-07T10:18:33.169Z,57.40
2023-01-07T10:23:39.768Z,56.77
2023-01-07T10:29:02.157Z,56.50
2023-01-07T10:34:12.755Z,56.41
2023-01-07T10:39:36.501Z,56.50
2023-01-07T10:44:54.644Z,55.83
2023-01-07T10:50:20.964Z,55.48
2023-01-07T10:55:37.774Z,55.51
2023-01-07T11:00:40.474Z,55.18
2023-01-07T11:05:42.546Z,54.94
2023-01-07T11:10:44.605Z,54.58
2023-01-07T11:15:55.382Z,54.36
2023-01-07T11:20:58.012Z,53.75
2023-01-07T11:26:13.714Z,52.81
2023-01-07T11:31:15.361Z,52.45
2023-01-07T11:36:17.713Z,52.39
2023-01-07T11:41:26.637Z,52.36
2023-01-07T11:46:31.656Z,52.34
2023-01-07T11:51:43.205Z,51.31
2023-01-07T11:56:44.890Z,51.99
2023-01-07T12:01:46.646Z,52.18
2023-01-07T12:06:51.128Z,52.36
2023-01-07T12:11:56.333Z,52.26
2023-01-07T12:17:15.383Z,51.61
2023-01-07T12:22:40.707Z,51.21
2023-01-07T12:28:08.472Z,52.47
2023-01-07T12:33:16.107Z,51.88
2023-01-07T12:38:50.342Z,51.68
2023-01-07T12:44:13.420Z,52.54
2023-01-07T12:49:48.534Z,52.58
2023-01-07T12:55:04.177Z,53.36
2023-01-07T13:00:08.347Z,53.51
2023-01-07T13:05:21.203Z,53.42
2023-01-07T13:10:28.443Z,53.72
2023-01-07T13:15:33.808Z,54.04
2023-01-07T13:21:09.922Z,54.07
2023-01-07T13:26:20.528Z,54.65
2023-01-07T13:31:30.793Z,54.44
2023-01-07T13:36:47.876Z,54.93
2023-01-07T13:42:08.418Z,54.75
2023-01-07T13:47:15.797Z,55.23
2023-01-07T13:52:24.345Z,54.54
2023-01-07T13:57:31.996Z,54.29
2023-01-07T14:03:28.710Z,54.20
2023-01-07T14:08:30.372Z,54.30
2023-01-07T14:13:36.544Z,53.61
2023-01-07T14:19:02.359Z,53.52
2023-01-07T14:24:39.652Z,53.56
2023-01-07T14:29:54.371Z,53.21
2023-01-07T14:35:23.397Z,52.61
2023-01-07T14:40:29.266Z,52.57
2023-01-07T14:45:36.957Z,52.27
2023-01-07T14:51:01.778Z,52.57
2023-01-07T14:56:12.348Z,52.59
2023-01-07T15:01:22.073Z,52.46
2023-01-07T15:06:34.104Z,53.00
2023-01-07T15:11:57.920Z,53.57
2023-01-07T15:17:00.110Z,54.05
2023-01-07T15:22:31.353Z,54.39
2023-01-07T15:27:56.487Z,54.36
2023-01-07T15:33:16.119Z,54.55
2023-01-07T15:38:44.681Z,54.24
2023-01-07T15:43:46.344Z,54.76
2023-01-07T15:49:04.437Z,54.89
2023-01-07T15:54:07.331Z,55.44
2023-01-07T15:59:09.234Z,55.41
2023-01-07T16:04:24.802Z,55.44
2023-01-07T16:09:27.524Z,55.35
2023-01-07T16:14:36.129Z,55.61
2023-01-07T16:19:37.751Z,56.42
2023-01-07T16:24:45.305Z,56.95
2023-01-07T16:29:52.650Z,57.67
2023-01-07T16:35:07.734Z,57.95
2023-01-07T16:40:19.496Z,58.42
2023-01-07T16:45:32.771Z,59.33
2023-01-07T16:50:39.911Z,59.91
2023-01-07T16:56:16.926Z,61.22
2023-01-07T17:01:30.779Z,61.46
2023-01-07T17:06:43.001Z,61.42
2023-01-07T17:11:48.074Z,61.49
2023-01-07T17:17:01.956Z,62.52
2023-01-07T17:22:04.721Z,62.22
2023-01-07T17:27:20.075Z,62.48
2023-01-07T17:32:24.380Z,61.93
2023-01-07T17:37:27.296Z,62.00
2023-01-07T17:42:51.676Z,62.34
2023-01-07T17:47:53.348Z,62.52
2023-01-07T17:52:55.049Z,62.61
2023-01-07T17:57:56.818Z,62.67
2023-01-07T18:02:58.611Z,62.82
2023-01-07T18:08:00.348Z,63.10
2023-01-07T18:13:02.027Z,62.84
2023-01-07T18:18:03.725Z,63.25
2023-01-07T18:23:05.306Z,62.91
2023-01-07T18:28:06.896Z,63.33
2023-01-07T18:33:11.194Z,63.12
2023-01-07T18:38:14.301Z,63.66
2023-01-07T18:43:17.836Z,63.72
2023-01-07T18:48:19.870Z,63.74
2023-01-07T18:53:22.507Z,63.79
2023-01-07T18:58:24.551Z,64.08
2023-01-07T19:03:26.317Z,64.60
2023-01-07T19:08:28.087Z,64.65
2023-01-07T19:13:29.807Z,64.15
2023-01-07T19:18:31.397Z,63.55
2023-01-07T19:23:33.197Z,63.30
2023-01-07T19:28:35.411Z,63.49
2023-01-07T19:33:37.294Z,63.45
2023-01-07T19:38:44.886Z,63.51
2023-01-07T19:43:47.651Z,63.51
2023-01-07T19:48:49.579Z,63.14
2023-01-07T19:53:51.423Z,63.14
2023-01-07T19:58:54.228Z,62.92
2023-01-07T20:03:58.194Z,62.69
2023-01-07T20:09:00.601Z,62.67
2023-01-07T20:14:02.195Z,62.48
2023-01-07T20:19:04.080Z,62.73
2023-01-07T20:24:06.636Z,62.68
2023-01-07T20:29:08.347Z,63.32
2023-01-07T20:34:10.366Z,63.46
2023-01-07T20:39:12.040Z,63.28
2023-01-07T20:44:13.662Z,63.15
2023-01-07T20:49:15.911Z,63.09
2023-01-07T20:54:17.593Z,63.26
2023-01-07T20:59:19.202Z,63.33
2023-01-07T21:04:20.835Z,63.49
2023-01-07T21:09:22.544Z,63.43
2023-01-07T21:14:24.140Z,62.99
2023-01-07T21:19:26.086Z,62.89
2023-01-07T21:24:27.798Z,62.34
2023-01-07T21:29:29.459Z,62.16
2023-01-07T21:34:31.057Z,61.89
2023-01-07T21:39:32.657Z,61.99
2023-01-07T21:44:34.236Z,61.84
2023-01-07T21:49:35.852Z,61.74
2023-01-07T21:54:37.584Z,61.71
2023-01-07T21:59:39.220Z,61.71
2023-01-07T22:04:40.953Z,61.72
2023-01-07T22:09:42.999Z,61.94
2023-01-07T22:14:44.705Z,61.59
2023-01-07T22:19:46.280Z,61.17
2023-01-07T22:24:47.902Z,61.14
2023-01-07T22:29:49.504Z,60.95
2023-01-07T22:34:51.112Z,61.13
2023-01-07T22:39:57.792Z,60.96
2023-01-07T22:45:06.085Z,60.84
2023-01-07T22:50:09.055Z,61.06
2023-01-07T22:55:12.299Z,61.06
2023-01-07T23:00:17.945Z,61.25
2023-01-07T23:05:19.544Z,61.30
2023-01-07T23:10:21.165Z,61.92
2023-01-07T23:15:22.819Z,62.44
2023-01-07T23:20:24.404Z,62.43
2023-01-07T23:25:26.269Z,62.45
2023-01-07T23:30:27.866Z,62.74
2023-01-07T23:35:29.535Z,62.64
2023-01-07T23:40:31.221Z,62.67
2023-01-07T23:45:32.978Z,62.81
2023-01-07T23:50:34.572Z,62.44
2023-01-07T23:55:39.155Z,63.00
